Time;durP1;ratioP1;P1;durP2;ratioP2;P2;SDS_P1;SDS_P2;PMS_P1;PMS_P2;Temp;Humidity;BMP_temperature;BMP_pressure;BME280_temperature;BME280_humidity;BME280_pressure;Samples;Min_cycle;Max_cycle;Signal;HPM_P1;HPM_P2
2023/07/23 00:01:26;;;;;;;10.07;6.38;;;;;;;14.38;100.00;100865.00;4878855;29;20052;-78
2023/07/23 00:03:54;;;;;;;8.95;7.10;;;;;;;14.35;100.00;100868.59;4883808;29;20519;-77
2023/07/23 00:06:21;;;;;;;12.50;6.75;;;;;;;14.32;100.00;100868.63;4868870;29;20052;-78
2023/07/23 00:08:49;;;;;;;10.90;6.95;;;;;;;14.31;100.00;100858.03;4885427;29;20500;-77
2023/07/23 00:11:16;;;;;;;11.82;5.78;;;;;;;14.30;100.00;100864.25;4840065;29;20083;-78
2023/07/23 00:13:44;;;;;;;10.90;6.80;;;;;;;14.30;100.00;100857.16;4879237;29;20044;-78
2023/07/23 00:16:11;;;;;;;9.85;6.30;;;;;;;14.29;100.00;100844.81;4877878;29;20053;-77
2023/07/23 00:18:39;;;;;;;9.60;5.88;;;;;;;14.29;100.00;100849.22;4868591;29;20053;-77
2023/07/23 00:21:06;;;;;;;12.52;5.88;;;;;;;14.27;100.00;100845.72;4877200;29;20064;-77
2023/07/23 00:23:35;;;;;;;13.20;5.82;;;;;;;14.24;100.00;100836.91;4884475;29;20052;-78
2023/07/23 00:26:03;;;;;;;8.65;5.70;;;;;;;14.23;100.00;100834.25;4839625;29;20049;-77
2023/07/23 00:28:30;;;;;;;10.13;5.93;;;;;;;14.21;100.00;100834.31;4864402;29;20056;-77
2023/07/23 00:30:58;;;;;;;10.10;5.43;;;;;;;14.18;100.00;100823.72;4878126;29;20061;-77
2023/07/23 00:33:26;;;;;;;8.50;5.13;;;;;;;14.15;100.00;100821.09;4878954;29;20067;-78
2023/07/23 00:35:53;;;;;;;10.05;6.32;;;;;;;14.12;100.00;100826.47;4882402;29;20519;-77
2023/07/23 00:38:21;;;;;;;9.65;5.55;;;;;;;14.08;100.00;100813.25;4852057;29;20057;-79
2023/07/23 00:40:48;;;;;;;12.52;6.07;;;;;;;14.09;100.00;100809.72;4872879;29;20056;-77
2023/07/23 00:43:17;;;;;;;9.35;6.25;;;;;;;14.09;100.00;100815.03;4850290;29;20071;-77
2023/07/23 00:45:46;;;;;;;11.10;5.95;;;;;;;14.07;100.00;100804.44;4885511;29;20056;-77
2023/07/23 00:48:13;;;;;;;6.80;5.07;;;;;;;14.05;100.00;100798.28;4896856;29;20053;-78
2023/07/23 00:50:42;;;;;;;7.22;5.78;;;;;;;14.05;100.00;100803.56;4855992;29;20052;-78
2023/07/23 00:53:09;;;;;;;8.75;5.68;;;;;;;14.03;100.00;100805.38;4877141;29;20060;-77
2023/07/23 00:55:37;;;;;;;8.32;5.85;;;;;;;14.02;100.00;100791.22;4894453;29;20134;-77
2023/07/23 00:58:04;;;;;;;11.10;6.55;;;;;;;14.02;100.00;100788.56;4849317;29;20813;-77
2023/07/23 01:00:32;;;;;;;10.98;5.57;;;;;;;14.03;100.00;100785.03;4878955;29;20051;-78
2023/07/23 01:03:03;;;;;;;12.50;5.97;;;;;;;14.04;100.00;100791.22;4891692;29;20500;-77
2023/07/23 01:05:33;;;;;;;8.60;5.82;;;;;;;14.04;100.00;100777.97;4884060;29;20522;-77
2023/07/23 01:08:03;;;;;;;10.63;6.18;;;;;;;14.03;100.00;100770.94;4876220;29;20056;-78
2023/07/23 01:10:32;;;;;;;11.43;6.93;;;;;;;14.02;100.00;100772.69;4869977;29;20408;-79
2023/07/23 01:12:59;;;;;;;12.70;7.43;;;;;;;14.01;100.00;100765.63;4856213;29;20061;-77
2023/07/23 01:15:28;;;;;;;11.60;7.38;;;;;;;14.01;100.00;100763.00;4893546;29;20050;-79
2023/07/23 01:17:59;;;;;;;13.88;6.55;;;;;;;13.98;100.00;100754.19;4877291;29;20060;-78
2023/07/23 01:20:27;;;;;;;9.63;6.22;;;;;;;13.97;100.00;100750.69;4887651;29;20059;-78
2023/07/23 01:22:54;;;;;;;11.65;7.10;;;;;;;13.96;100.00;100748.91;4900275;29;20048;-77
2023/07/23 01:25:22;;;;;;;12.20;6.85;;;;;;;13.95;100.00;100746.28;4867474;29;20060;-77
2023/07/23 01:27:50;;;;;;;9.45;7.00;;;;;;;13.95;100.00;100744.53;4845128;29;20530;-78
2023/07/23 01:30:17;;;;;;;11.07;6.15;;;;;;;13.96;100.00;100732.16;4876595;29;20408;-77
2023/07/23 01:32:47;;;;;;;11.48;6.95;;;;;;;13.94;100.00;100729.53;4861374;29;20048;-77
2023/07/23 01:35:16;;;;;;;10.75;6.60;;;;;;;13.93;100.00;100738.38;4890839;29;20047;-79
2023/07/23 01:37:47;;;;;;;10.73;6.57;;;;;;;13.93;100.00;100722.50;4867302;29;20056;-78
2023/07/23 01:40:15;;;;;;;9.82;6.43;;;;;;;13.93;100.00;100727.78;4883433;29;20886;-80
2023/07/23 01:42:46;;;;;;;8.82;6.32;;;;;;;13.91;100.00;100718.94;4858926;29;20617;-77
2023/07/23 01:45:14;;;;;;;8.18;6.30;;;;;;;13.93;100.00;100714.53;4891716;29;20594;-78
2023/07/23 01:47:43;;;;;;;9.95;5.78;;;;;;;13.93;100.00;100719.84;4863239;29;20068;-78
2023/07/23 01:50:10;;;;;;;9.77;6.43;;;;;;;13.94;100.00;100713.63;4875156;29;20051;-77
2023/07/23 01:52:38;;;;;;;10.02;6.85;;;;;;;13.95;100.00;100709.19;4863619;29;20060;-79
2023/07/23 01:55:07;;;;;;;11.43;6.50;;;;;;;13.95;100.00;100710.09;4861982;29;20052;-77
2023/07/23 01:57:34;;;;;;;12.48;6.85;;;;;;;13.95;100.00;100696.84;4858773;29;20497;-77
2023/07/23 02:00:03;;;;;;;11.82;7.25;;;;;;;13.95;100.00;100703.91;4880142;29;20057;-77
2023/07/23 02:02:38;;;;;;;7.53;6.22;;;;;;;13.94;100.00;100695.09;4879886;29;20052;-77
2023/07/23 02:05:07;;;;;;;9.18;6.75;;;;;;;13.94;100.00;100688.91;4879018;29;20091;-78
2023/07/23 02:07:34;;;;;;;8.85;6.00;;;;;;;13.95;100.00;100688.00;4870040;29;20048;-78
2023/07/23 02:10:02;;;;;;;11.10;6.45;;;;;;;13.93;100.00;100688.06;4875897;29;20049;-78
2023/07/23 02:12:30;;;;;;;11.90;6.85;;;;;;;13.93;100.00;100689.78;4858758;29;20044;-77
2023/07/23 02:14:57;;;;;;;7.38;6.20;;;;;;;13.94;100.00;100688.91;4865344;29;20049;-79
2023/07/23 02:17:25;;;;;;;10.23;6.32;;;;;;;13.95;100.00;100682.69;4895270;29;20049;-77
2023/07/23 02:19:53;;;;;;;8.52;6.28;;;;;;;13.95;100.00;100675.66;4862881;29;20060;-77
2023/07/23 02:22:20;;;;;;;12.23;6.55;;;;;;;13.96;100.00;100677.38;4867758;29;20048;-78
2023/07/23 02:24:48;;;;;;;10.93;6.57;;;;;;;13.97;100.00;100672.97;4868876;29;20412;-78
2023/07/23 02:27:15;;;;;;;6.97;5.28;;;;;;;13.98;100.00;100672.94;4868762;29;20056;-77
2023/07/23 02:29:43;;;;;;;10.35;6.25;;;;;;;14.01;100.00;100669.41;4832868;29;20037;-77
2023/07/23 02:32:12;;;;;;;13.10;6.22;;;;;;;14.01;100.00;100674.69;4858709;29;20548;-77
2023/07/23 02:34:39;;;;;;;10.95;6.15;;;;;;;14.01;100.00;100659.66;4887406;29;20048;-78
2023/07/23 02:37:07;;;;;;;9.32;6.13;;;;;;;14.01;100.00;100662.31;4861079;29;20049;-79
2023/07/23 02:39:34;;;;;;;10.07;6.18;;;;;;;14.01;100.00;100664.09;4867963;29;20052;-79
2023/07/23 02:42:03;;;;;;;11.10;6.18;;;;;;;14.01;100.00;100659.66;4868662;29;20068;-78
2023/07/23 02:44:31;;;;;;;13.65;5.90;;;;;;;14.01;100.00;100664.97;4842870;29;20045;-78
2023/07/23 02:46:58;;;;;;;10.05;6.28;;;;;;;14.00;100.00;100655.25;4858735;29;20045;-77
2023/07/23 02:49:27;;;;;;;7.60;5.90;;;;;;;14.01;100.00;100653.50;4876735;29;20520;-78
2023/07/23 02:51:54;;;;;;;7.20;5.53;;;;;;;14.02;100.00;100649.94;4877977;29;20067;-78
2023/07/23 02:54:22;;;;;;;9.07;6.50;;;;;;;14.02;100.00;100639.34;4877903;29;20063;-77
2023/07/23 02:56:49;;;;;;;8.93;5.82;;;;;;;14.02;100.00;100640.22;4853048;29;20059;-77
2023/07/23 02:59:17;;;;;;;9.32;5.88;;;;;;;14.03;100.00;100636.69;4885122;29;20047;-78
2023/07/23 03:01:45;;;;;;;9.90;5.50;;;;;;;14.04;100.00;100629.59;4864015;29;20079;-77
2023/07/23 03:04:14;;;;;;;8.00;5.57;;;;;;;14.04;100.00;100626.94;4874334;29;20049;-79
2023/07/23 03:06:41;;;;;;;8.27;5.55;;;;;;;14.04;100.00;100633.16;4865104;29;20056;-78
2023/07/23 03:09:09;;;;;;;8.18;4.93;;;;;;;14.07;100.00;100631.34;4891348;29;20048;-77
2023/07/23 03:11:36;;;;;;;6.55;5.78;;;;;;;14.07;100.00;100631.34;4871430;29;20063;-78
2023/07/23 03:14:04;;;;;;;9.57;5.28;;;;;;;14.05;100.00;100634.00;4881797;29;20064;-76
2023/07/23 03:16:33;;;;;;;9.93;5.45;;;;;;;14.04;100.00;100617.25;4824762;29;20048;-77
2023/07/23 03:19:02;;;;;;;8.38;6.13;;;;;;;14.05;100.00;100618.13;4875366;29;20055;-78
2023/07/23 03:21:30;;;;;;;11.32;5.32;;;;;;;14.04;100.00;100619.91;4894758;29;20045;-78
2023/07/23 03:23:58;;;;;;;9.73;6.43;;;;;;;14.04;100.00;100611.94;4877271;29;20045;-78
2023/07/23 03:26:25;;;;;;;8.80;5.88;;;;;;;14.04;100.00;100613.69;4874901;29;20066;-78
2023/07/23 03:28:54;;;;;;;10.75;5.53;;;;;;;14.03;100.00;100620.78;4877172;29;20057;-77
2023/07/23 03:31:22;;;;;;;10.63;6.10;;;;;;;14.02;100.00;100619.00;4851012;29;20064;-78
2023/07/23 03:33:49;;;;;;;9.20;5.45;;;;;;;14.03;100.00;100611.97;4826717;29;20063;-78
2023/07/23 03:36:17;;;;;;;9.00;6.05;;;;;;;14.02;100.00;100610.19;4873491;29;20045;-77
2023/07/23 03:38:44;;;;;;;8.25;6.15;;;;;;;14.01;100.00;100603.16;4875617;29;20064;-77
2023/07/23 03:41:12;;;;;;;10.43;6.35;;;;;;;14.02;100.00;100602.25;4865190;29;21244;-77
2023/07/23 03:43:39;;;;;;;9.55;6.30;;;;;;;14.01;100.00;100598.72;4861793;29;20056;-79
2023/07/23 03:46:06;;;;;;;8.48;5.95;;;;;;;14.01;100.00;100604.03;4849672;29;20056;-77
2023/07/23 03:48:34;;;;;;;10.07;6.00;;;;;;;14.01;100.00;100604.03;4831117;29;20056;-78
2023/07/23 03:51:01;;;;;;;8.65;6.47;;;;;;;14.01;100.00;100592.56;4871624;29;20519;-78
2023/07/23 03:53:29;;;;;;;8.52;6.03;;;;;;;14.00;100.00;100604.91;4889958;29;20076;-77
2023/07/23 03:55:56;;;;;;;10.93;5.78;;;;;;;14.01;100.00;100598.72;4869989;29;20057;-78
2023/07/23 03:58:24;;;;;;;8.18;6.03;;;;;;;14.01;100.00;100601.38;4870148;29;20057;-78
2023/07/23 04:00:53;;;;;;;8.70;6.60;;;;;;;14.02;100.00;100597.81;4855279;29;20061;-78
2023/07/23 04:03:21;;;;;;;9.70;6.75;;;;;;;14.02;100.00;100589.88;4830892;29;20061;-78
2023/07/23 04:05:48;;;;;;;9.43;6.60;;;;;;;14.02;100.00;100589.88;4873539;29;20057;-77
2023/07/23 04:08:15;;;;;;;10.68;7.40;;;;;;;14.03;100.00;100588.13;4876863;29;20056;-79
2023/07/23 04:10:43;;;;;;;12.25;6.78;;;;;;;14.03;100.00;100586.34;4883329;29;20432;-78
2023/07/23 04:13:10;;;;;;;10.82;7.93;;;;;;;14.04;100.00;100580.16;4863883;29;20057;-77
2023/07/23 04:15:38;;;;;;;12.32;6.78;;;;;;;14.04;100.00;100574.84;4903381;29;20044;-79
2023/07/23 04:18:13;;;;;;;8.90;6.95;;;;;;;14.04;100.00;100577.50;4879756;29;20067;-78
2023/07/23 04:20:41;;;;;;;7.80;6.13;;;;;;;14.04;100.00;100574.84;4837492;29;20049;-78
2023/07/23 04:23:09;;;;;;;11.63;6.95;;;;;;;14.03;100.00;100573.09;4872627;29;20052;-77
2023/07/23 04:25:37;;;;;;;13.98;7.07;;;;;;;14.03;100.00;100574.88;4877405;29;20064;-77
2023/07/23 04:28:05;;;;;;;9.70;6.18;;;;;;;14.03;100.00;100567.78;4860565;29;20049;-77
2023/07/23 04:30:35;;;;;;;9.88;6.55;;;;;;;14.03;100.00;100557.19;4873372;29;20053;-78
2023/07/23 04:33:03;;;;;;;9.25;6.60;;;;;;;14.05;100.00;100562.47;4893950;29;20523;-78
2023/07/23 04:35:30;;;;;;;11.18;7.18;;;;;;;14.07;100.00;100557.16;4840131;29;20060;-78
2023/07/23 04:37:58;;;;;;;10.43;6.40;;;;;;;14.08;100.00;100564.19;4868452;29;20056;-78
2023/07/23 04:40:26;;;;;;;9.13;6.43;;;;;;;14.09;100.00;100550.06;4889727;29;20059;-77
2023/07/23 04:42:53;;;;;;;11.20;6.63;;;;;;;14.08;100.00;100562.41;4887995;29;20065;-77
2023/07/23 04:45:22;;;;;;;10.98;7.35;;;;;;;14.08;100.00;100549.16;4889845;29;20138;-77
2023/07/23 04:47:50;;;;;;;8.35;6.50;;;;;;;14.09;100.00;100550.94;4892490;29;20053;-77
2023/07/23 04:50:19;;;;;;;9.43;6.65;;;;;;;14.11;100.00;100545.59;4873210;29;20052;-78
2023/07/23 04:52:46;;;;;;;8.98;6.38;;;;;;;14.11;100.00;100535.88;4863578;29;20059;-78
2023/07/23 04:55:15;;;;;;;9.55;6.68;;;;;;;14.13;100.00;100538.50;4869318;29;20061;-77
2023/07/23 04:57:42;;;;;;;11.82;7.20;;;;;;;14.14;100.00;100537.59;4878635;29;20409;-79
2023/07/23 05:00:12;;;;;;;9.98;6.30;;;;;;;14.17;100.00;100526.94;4850889;29;20060;-78
2023/07/23 05:02:39;;;;;;;8.95;6.78;;;;;;;14.18;100.00;100528.72;4894674;29;20061;-77
2023/07/23 05:05:07;;;;;;;9.63;6.55;;;;;;;14.18;100.00;100520.75;4868118;29;20056;-78
2023/07/23 05:07:34;;;;;;;9.57;6.32;;;;;;;14.19;100.00;100519.84;4843629;29;20057;-77
2023/07/23 05:10:03;;;;;;;10.65;7.20;;;;;;;14.19;100.00;100526.00;4866162;29;20044;-77
2023/07/23 05:12:30;;;;;;;8.55;6.10;;;;;;;14.19;100.00;100520.72;4880786;29;20531;-79
2023/07/23 05:15:14;;;;;;;10.43;6.13;;;;;;;14.22;100.00;100525.09;4852160;29;20072;-78
2023/07/23 05:17:42;;;;;;;8.65;6.40;;;;;;;14.22;100.00;100536.56;4878530;29;20500;-78
2023/07/23 05:20:09;;;;;;;10.13;7.47;;;;;;;14.23;100.00;100524.19;4868781;29;20496;-77
2023/07/23 05:22:40;;;;;;;11.30;6.65;;;;;;;14.23;100.00;100527.75;4881139;29;20068;-78
2023/07/23 05:25:08;;;;;;;11.77;6.47;;;;;;;14.24;100.00;100528.59;4851806;29;20052;-78
2023/07/23 05:27:36;;;;;;;10.57;6.50;;;;;;;14.24;100.00;100518.00;4889202;29;20049;-77
2023/07/23 05:30:04;;;;;;;8.35;5.85;;;;;;;14.25;100.00;100527.69;4881491;29;20422;-78
2023/07/23 05:32:32;;;;;;;12.85;7.43;;;;;;;14.27;100.00;100511.75;4894591;29;20061;-78
2023/07/23 05:35:01;;;;;;;9.38;6.60;;;;;;;14.28;100.00;100513.53;4890239;29;20052;-77
2023/07/23 05:37:30;;;;;;;8.43;6.68;;;;;;;14.30;100.00;100512.59;4897289;29;20044;-77
2023/07/23 05:39:57;;;;;;;13.20;6.47;;;;;;;14.31;100.00;100503.75;4844172;29;20512;-77
2023/07/23 05:42:26;;;;;;;12.63;7.18;;;;;;;14.35;100.00;100493.97;4883046;29;20056;-77
2023/07/23 05:44:54;;;;;;;10.32;6.85;;;;;;;14.37;100.00;100502.75;4881663;29;20059;-79
2023/07/23 05:47:21;;;;;;;15.63;7.90;;;;;;;14.37;100.00;100495.69;4893768;29;20048;-77
2023/07/23 05:49:49;;;;;;;11.38;7.25;;;;;;;14.38;100.00;100492.09;4894707;29;20057;-77
2023/07/23 05:52:16;;;;;;;12.05;7.25;;;;;;;14.40;100.00;100486.78;4888820;29;20056;-77
2023/07/23 05:54:43;;;;;;;14.32;8.10;;;;;;;14.40;100.00;100490.34;4844447;29;20056;-77
2023/07/23 05:57:11;;;;;;;12.65;7.45;;;;;;;14.44;100.00;100488.47;4878549;29;20055;-77
2023/07/23 05:59:39;;;;;;;15.25;8.07;;;;;;;14.45;100.00;100484.94;4866871;29;20056;-78
2023/07/23 06:02:06;;;;;;;14.48;7.85;;;;;;;14.47;100.00;100476.97;4885825;29;20060;-77
2023/07/23 06:04:34;;;;;;;11.45;8.27;;;;;;;14.49;100.00;100469.84;4895163;29;20058;-78
2023/07/23 06:07:02;;;;;;;14.57;9.13;;;;;;;14.48;100.00;100474.28;4882517;29;20052;-77
2023/07/23 06:09:29;;;;;;;11.65;7.63;;;;;;;14.48;100.00;100476.03;4879586;29;20052;-77
2023/07/23 06:11:57;;;;;;;14.68;7.88;;;;;;;14.50;100.00;100471.56;4830957;29;20049;-79
2023/07/23 06:14:24;;;;;;;14.45;7.95;;;;;;;14.52;100.00;100475.97;4855326;29;20058;-79
2023/07/23 06:16:52;;;;;;;12.60;9.38;;;;;;;14.52;100.00;100468.00;4876913;29;20526;-77
2023/07/23 06:19:20;;;;;;;13.20;8.35;;;;;;;14.54;100.00;100470.63;4875569;29;20277;-79
2023/07/23 06:21:48;;;;;;;13.52;9.00;;;;;;;14.54;100.00;100457.38;4866784;29;20049;-77
2023/07/23 06:24:15;;;;;;;10.73;7.75;;;;;;;14.54;100.00;100457.38;4884073;29;20052;-77
2023/07/23 06:26:43;;;;;;;14.15;9.20;;;;;;;14.54;100.00;100458.25;4843940;29;20060;-77
2023/07/23 06:29:10;;;;;;;18.77;8.93;;;;;;;14.56;100.00;100459.09;4876727;29;20067;-78
2023/07/23 06:31:38;;;;;;;11.57;7.95;;;;;;;14.59;100.00;100459.06;4879550;29;20059;-78
2023/07/23 06:34:05;;;;;;;12.15;8.38;;;;;;;14.60;100.00;100450.19;4874501;29;20060;-78
2023/07/23 06:36:33;;;;;;;11.70;8.15;;;;;;;14.62;100.00;100444.88;4878332;29;20512;-77
2023/07/23 06:39:00;;;;;;;10.15;8.38;;;;;;;14.65;100.00;100449.22;4850781;29;20063;-78
2023/07/23 06:41:28;;;;;;;19.52;9.27;;;;;;;14.67;100.00;100453.63;4846217;29;20043;-77
2023/07/23 06:43:56;;;;;;;12.75;7.95;;;;;;;14.68;100.00;100449.19;4893792;29;20595;-77
2023/07/23 06:46:23;;;;;;;11.30;8.27;;;;;;;14.70;100.00;100456.19;4871416;29;20044;-79
2023/07/23 06:48:51;;;;;;;13.93;8.77;;;;;;;14.74;100.00;100436.66;4857291;29;20056;-77
2023/07/23 06:51:18;;;;;;;16.23;8.95;;;;;;;14.77;100.00;100433.94;4883998;29;20044;-77
2023/07/23 06:53:46;;;;;;;11.25;8.32;;;;;;;14.80;100.00;100449.81;4873813;29;20063;-78
2023/07/23 06:56:14;;;;;;;12.30;8.35;;;;;;;14.84;100.00;100440.00;4863114;29;20503;-78
2023/07/23 06:58:41;;;;;;;15.32;9.27;;;;;;;14.87;100.00;100439.94;4860583;29;20412;-78
2023/07/23 07:01:09;;;;;;;13.15;8.18;;;;;;;14.88;100.00;100430.22;4853990;29;20045;-78
2023/07/23 07:03:36;;;;;;;13.70;8.98;;;;;;;14.89;100.00;100435.47;4870030;29;20079;-78
2023/07/23 07:06:04;;;;;;;14.93;8.82;;;;;;;14.91;100.00;100438.94;4890105;29;20059;-78
2023/07/23 07:08:33;;;;;;;12.13;8.65;;;;;;;14.94;100.00;100430.94;4883320;29;20056;-78
2023/07/23 07:11:03;;;;;;;12.00;9.38;;;;;;;14.97;100.00;100424.69;4875496;29;20045;-78
2023/07/23 07:13:31;;;;;;;11.27;8.98;;;;;;;14.99;100.00;100429.06;4839188;29;20056;-77
2023/07/23 07:15:59;;;;;;;13.07;8.98;;;;;;;15.04;100.00;100425.44;4859185;29;20068;-77
2023/07/23 07:18:27;;;;;;;11.70;9.48;;;;;;;15.06;100.00;100420.97;4883533;29;20524;-78
2023/07/23 07:20:58;;;;;;;13.10;9.23;;;;;;;15.10;100.00;100420.00;4873487;29;20076;-77
2023/07/23 07:23:27;;;;;;;11.03;8.60;;;;;;;15.13;100.00;100422.59;4861474;29;20508;-80
2023/07/23 07:25:55;;;;;;;13.77;9.18;;;;;;;15.14;100.00;100425.22;4862404;29;20321;-84
2023/07/23 07:28:27;;;;;;;14.65;8.63;;;;;;;15.15;100.00;100424.28;4879420;29;20500;-82
2023/07/23 07:30:59;;;;;;;15.23;8.93;;;;;;;15.17;100.00;100422.47;4852724;29;20496;-82
2023/07/23 07:33:28;;;;;;;14.45;8.57;;;;;;;15.19;100.00;100418.00;4894963;29;20416;-84
2023/07/23 07:35:58;;;;;;;;;;;;;;;15.21;100.00;100413.53;4873784;29;20441;-82
2023/07/23 07:38:27;;;;;;;12.70;8.25;;;;;;;15.20;100.00;100417.09;4898741;29;19924;-80
2023/07/23 07:40:57;;;;;;;13.27;9.00;;;;;;;15.21;100.00;100417.97;4884406;29;20057;-83
2023/07/23 07:43:25;;;;;;;13.13;7.95;;;;;;;15.21;100.00;100416.19;4865528;29;20067;-81
2023/07/23 07:46:05;;;;;;;16.80;8.68;;;;;;;15.24;100.00;100414.38;4858942;29;20059;-81
2023/07/23 07:48:40;;;;;;;11.15;7.90;;;;;;;15.23;100.00;100408.19;4878235;29;20102;-83
2023/07/23 07:51:08;;;;;;;11.15;8.63;;;;;;;15.24;100.00;100401.97;4853126;29;20409;-83
2023/07/23 07:53:36;;;;;;;15.52;9.25;;;;;;;15.29;100.00;100409.81;4864095;29;20064;-81
2023/07/23 07:56:04;;;;;;;14.60;8.98;;;;;;;15.30;100.00;100400.97;4868216;29;20365;-81
2023/07/23 07:58:32;;;;;;;12.63;8.77;;;;;;;15.31;100.00;100405.34;4893431;29;20052;-83
2023/07/23 08:01:02;;;;;;;13.57;9.45;;;;;;;15.32;100.00;100397.34;4861212;29;20048;-81
2023/07/23 08:03:31;;;;;;;13.38;8.35;;;;;;;15.33;100.00;100408.84;4879018;29;20037;-82
2023/07/23 08:05:59;;;;;;;14.00;8.52;;;;;;;15.34;100.00;100398.19;4852883;29;20056;-80
2023/07/23 08:08:33;;;;;;;19.02;10.00;;;;;;;15.37;100.00;100399.91;4872162;29;20068;-81
2023/07/23 08:11:03;;;;;;;12.40;7.95;;;;;;;15.40;100.00;100403.34;4891205;29;20044;-82
2023/07/23 08:13:31;;;;;;;13.73;8.32;;;;;;;15.43;100.00;100406.88;4859417;29;20056;-83
2023/07/23 08:15:59;;;;;;;15.30;8.93;;;;;;;15.46;100.00;100399.66;4864944;29;20412;-81
2023/07/23 08:18:27;;;;;;;14.65;8.38;;;;;;;15.47;100.00;100398.78;4876040;29;20695;-82
2023/07/23 08:20:57;;;;;;;13.50;9.35;;;;;;;15.48;100.00;100396.97;4888311;29;20419;-82
2023/07/23 08:23:25;;;;;;;13.60;8.43;;;;;;;15.47;100.00;100412.06;4884260;29;20051;-82
2023/07/23 08:25:56;;;;;;;13.85;8.60;;;;;;;15.45;100.00;100402.38;4895699;29;20079;-83
2023/07/23 08:28:29;;;;;;;19.63;9.23;;;;;;;15.47;100.00;100409.41;4902682;29;20586;-82
2023/07/23 08:31:00;;;;;;;13.82;9.32;;;;;;;15.46;100.00;100409.44;4887493;29;20048;-81
2023/07/23 08:33:30;;;;;;;14.80;9.00;;;;;;;15.46;100.00;100412.09;4889104;29;20052;-82
2023/07/23 08:36:00;;;;;;;15.73;9.20;;;;;;;15.47;100.00;100409.41;4906441;29;20051;-82
2023/07/23 08:38:28;;;;;;;16.05;9.10;;;;;;;15.51;100.00;100399.56;4896929;29;20044;-83
2023/07/23 08:41:01;;;;;;;13.15;8.52;;;;;;;15.52;100.00;100403.97;4878078;29;20492;-83
2023/07/23 08:43:40;;;;;;;15.25;8.93;;;;;;;15.54;100.00;100408.34;4900309;29;20500;-82
2023/07/23 08:46:37;;;;;;;14.10;8.52;;;;;;;15.56;100.00;100409.19;4902883;29;20531;-82
2023/07/23 08:49:10;;;;;;;16.30;9.20;;;;;;;15.58;100.00;100412.66;4866872;29;20428;-83
2023/07/23 08:51:48;;;;;;;12.80;7.82;;;;;;;15.55;100.00;100410.06;4906496;29;20059;-81
2023/07/23 08:54:18;;;;;;;12.90;8.65;;;;;;;15.54;100.00;100410.13;4896194;29;20048;-78
2023/07/23 08:56:45;;;;;;;13.98;8.60;;;;;;;15.55;100.00;100409.22;4876262;29;20548;-82
2023/07/23 08:59:13;;;;;;;12.20;7.75;;;;;;;15.56;100.00;100406.53;4894189;29;20504;-83
2023/07/23 09:01:42;;;;;;;11.05;7.88;;;;;;;15.53;100.00;100419.88;4899279;29;20056;-83
2023/07/23 09:04:12;;;;;;;9.88;7.57;;;;;;;15.52;100.00;100419.91;4857548;29;20048;-81
2023/07/23 09:06:42;;;;;;;12.20;8.03;;;;;;;15.51;100.00;100419.03;4887264;29;20564;-81
2023/07/23 09:09:12;;;;;;;10.55;8.23;;;;;;;15.52;100.00;100404.84;4885840;29;20056;-82
2023/07/23 09:11:39;;;;;;;12.98;9.32;;;;;;;15.52;100.00;100415.47;4893058;29;20044;-81
2023/07/23 09:14:08;;;;;;;13.05;8.02;;;;;;;15.52;100.00;100414.59;4887658;29;20055;-82
2023/07/23 09:16:44;;;;;;;13.13;7.93;;;;;;;15.50;100.00;100409.34;4893093;29;20059;-82
2023/07/23 09:19:14;;;;;;;13.73;7.80;;;;;;;15.49;100.00;100418.19;4863494;29;20039;-82
2023/07/23 09:21:42;;;;;;;9.73;7.72;;;;;;;15.50;100.00;100422.63;4880312;29;20056;-81
2023/07/23 09:24:12;;;;;;;10.18;7.78;;;;;;;15.54;100.00;100424.28;4889092;29;20060;-82
2023/07/23 09:26:40;;;;;;;11.60;7.68;;;;;;;15.56;100.00;100425.13;4872968;29;20072;-83
2023/07/23 09:29:11;;;;;;;8.32;6.68;;;;;;;15.59;100.00;100418.84;4898982;29;20052;-82
2023/07/23 09:31:45;;;;;;;13.80;7.85;;;;;;;15.62;100.00;100425.88;4902316;29;20057;-82
2023/07/23 09:34:20;;;;;;;10.75;7.88;;;;;;;15.65;100.00;100429.34;4885343;29;20048;-83
2023/07/23 09:36:52;;;;;;;10.88;8.50;;;;;;;15.67;100.00;100426.63;4894832;29;20044;-82
2023/07/23 09:39:23;;;;;;;10.05;7.97;;;;;;;15.67;100.00;100426.63;4886023;29;20059;-82
2023/07/23 09:41:51;;;;;;;14.20;8.38;;;;;;;15.64;100.00;100426.72;4903196;29;22569;-82
2023/07/23 09:44:24;;;;;;;12.23;9.48;;;;;;;15.63;100.00;100431.13;4872399;29;20048;-81
2023/07/23 09:46:51;;;;;;;10.50;7.88;;;;;;;15.60;100.00;100437.41;4897507;29;20064;-81
2023/07/23 09:49:29;;;;;;;9.60;7.75;;;;;;;15.58;100.00;100433.91;4858870;29;20056;-81
2023/07/23 09:51:57;;;;;;;12.50;8.13;;;;;;;15.63;100.00;100438.25;4900187;29;20056;-80
2023/07/23 09:54:25;;;;;;;11.82;7.97;;;;;;;15.65;100.00;100424.03;4897274;29;20415;-81
2023/07/23 09:56:53;;;;;;;12.10;8.80;;;;;;;15.68;100.00;100431.03;4870423;29;20068;-82
2023/07/23 09:59:22;;;;;;;11.60;7.93;;;;;;;15.69;100.00;100432.75;4877538;29;20536;-80
2023/07/23 10:01:50;;;;;;;10.32;7.45;;;;;;;15.67;100.00;100438.16;4886900;29;20052;-80
2023/07/23 10:04:19;;;;;;;10.35;8.15;;;;;;;15.67;100.00;100431.94;4893525;29;20052;-80
2023/07/23 10:06:48;;;;;;;9.70;7.30;;;;;;;15.63;100.00;100435.56;4858360;29;20057;-80
2023/07/23 10:09:16;;;;;;;8.40;7.13;;;;;;;15.62;100.00;100436.50;4897073;29;20060;-80
2023/07/23 10:11:43;;;;;;;7.50;6.60;;;;;;;15.61;100.00;100432.97;4879397;29;20432;-81
2023/07/23 10:14:11;;;;;;;9.93;7.43;;;;;;;15.59;100.00;100440.97;4891968;29;20040;-81
2023/07/23 10:16:42;;;;;;;10.20;6.65;;;;;;;15.59;100.00;100438.31;4901286;29;20071;-81
2023/07/23 10:19:11;;;;;;;9.00;7.03;;;;;;;15.59;100.00;100432.13;4913211;29;20051;-81
2023/07/23 10:21:39;;;;;;;8.88;7.22;;;;;;;15.61;100.00;100438.25;4871800;29;20061;-81
2023/07/23 10:24:07;;;;;;;11.65;7.55;;;;;;;15.62;100.00;100439.16;4881457;29;20419;-80
2023/07/23 10:26:45;;;;;;;9.13;7.57;;;;;;;15.64;100.00;100437.34;4879398;29;20056;-81
2023/07/23 10:29:15;;;;;;;8.48;6.78;;;;;;;15.63;100.00;100432.91;4895249;29;20548;-81
2023/07/23 10:31:42;;;;;;;12.35;7.47;;;;;;;15.67;100.00;100445.22;4888050;29;20057;-81
2023/07/23 10:34:26;;;;;;;10.05;7.88;;;;;;;15.70;100.00;100437.19;4888371;29;20044;-81
2023/07/23 10:37:13;;;;;;;11.73;7.85;;;;;;;15.72;100.00;100435.34;4862943;29;20056;-81
2023/07/23 10:39:42;;;;;;;12.05;7.60;;;;;;;15.70;100.00;100439.84;4869566;29;20067;-82
2023/07/23 10:42:09;;;;;;;9.23;6.97;;;;;;;15.69;100.00;100435.41;4896949;29;20044;-82
2023/07/23 10:44:39;;;;;;;9.95;7.53;;;;;;;15.68;100.00;100431.91;4875153;29;20059;-83
2023/07/23 10:47:30;;;;;;;10.02;7.78;;;;;;;15.67;100.00;100427.50;4879282;29;20067;-82
2023/07/23 10:50:11;;;;;;;10.57;7.80;;;;;;;15.68;100.00;100429.25;4903834;29;20044;-84
2023/07/23 10:52:38;;;;;;;12.07;8.10;;;;;;;15.68;100.00;100433.69;4850418;29;20059;-84
2023/07/23 10:55:08;;;;;;;11.27;7.63;;;;;;;15.68;100.00;100433.69;4899693;29;20063;-83
2023/07/23 10:57:41;;;;;;;9.45;7.05;;;;;;;15.70;100.00;100429.22;4861284;29;20056;-82
2023/07/23 11:00:19;;;;;;;10.27;7.25;;;;;;;15.71;100.00;100423.00;4876476;29;20059;-84
2023/07/23 11:02:53;;;;;;;11.25;8.13;;;;;;;15.73;100.00;100423.84;4880285;29;20063;-83
2023/07/23 11:05:21;;;;;;;9.65;7.18;;;;;;;15.75;100.00;100424.69;4883675;29;20059;-83
2023/07/23 11:08:25;;;;;;;7.60;6.53;;;;;;;15.75;100.00;100430.88;4855962;29;20770;-82
2023/07/23 11:10:55;;;;;;;8.45;6.45;;;;;;;15.78;100.00;100429.91;4902803;29;20060;-82
2023/07/23 11:13:31;;;;;;;10.43;7.35;;;;;;;15.79;100.00;100432.53;4903633;29;20044;-82
2023/07/23 11:16:02;;;;;;;11.30;7.57;;;;;;;15.82;100.00;100428.94;4875422;29;20060;-82
2023/07/23 11:18:32;;;;;;;11.40;7.18;;;;;;;15.85;100.00;100426.19;4854214;29;20060;-81
2023/07/23 11:21:05;;;;;;;8.90;7.13;;;;;;;15.89;100.00;100427.00;4886633;29;20060;-82